sensor_id;sensor_type;location;lat;lon;timestamp;pressure;altitude;pressure_sealevel;temperature;humidity
79118;BME280;68523;51.336;-0.846;2023-04-16T00:02:34;101628.92;;;8.0;95.0
79118;BME280;68523;51.336;-0.846;2023-04-16T00:07:36;101625.06;;;8.0;95.6
79118;BME280;68523;51.336;-0.846;2023-04-16T00:13:05;101622.15;;;7.6;97.0
79118;BME280;68523;51.336;-0.846;2023-04-16T00:18:34;101620.50;;;7.9;96.4
79118;BME280;68523;51.336;-0.846;2023-04-16T00:23:37;101618.89;;;8.7;93.6
79118;BME280;68523;51.336;-0.846;2023-04-16T00:29:06;101618.03;;;8.9;92.9
79118;BME280;68523;51.336;-0.846;2023-04-16T00:34:35;101618.06;;;8.2;94.0
79118;BME280;68523;51.336;-0.846;2023-04-16T00:39:38;101619.29;;;7.9;95.0
79118;BME280;68523;51.336;-0.846;2023-04-16T00:45:01;101616.94;;;8.7;92.7
79118;BME280;68523;51.336;-0.846;2023-04-16T00:50:05;101621.29;;;8.5;92.8
79118;BME280;68523;51.336;-0.846;2023-04-16T00:55:35;101620.46;;;8.9;91.8
79118;BME280;68523;51.336;-0.846;2023-04-16T01:00:37;101621.32;;;8.6;92.0
79118;BME280;68523;51.336;-0.846;2023-04-16T01:06:01;101621.84;;;8.5;93.3
79118;BME280;68523;51.336;-0.846;2023-04-16T01:11:04;101627.36;;;6.9;98.6
79118;BME280;68523;51.336;-0.846;2023-04-16T01:16:33;101622.75;;;7.1;99.0
79118;BME280;68523;51.336;-0.846;2023-04-16T01:21:36;101620.63;;;7.3;98.2
79118;BME280;68523;51.336;-0.846;2023-04-16T01:27:05;101621.96;;;7.4;98.5
79118;BME280;68523;51.336;-0.846;2023-04-16T01:32:34;101622.26;;;7.3;98.6
79118;BME280;68523;51.336;-0.846;2023-04-16T01:37:37;101622.20;;;7.0;100.0
79118;BME280;68523;51.336;-0.846;2023-04-16T01:43:05;101614.66;;;7.8;98.2
79118;BME280;68523;51.336;-0.846;2023-04-16T01:48:34;101612.07;;;7.7;96.1
79118;BME280;68523;51.336;-0.846;2023-04-16T01:53:37;101609.52;;;7.4;96.6
79118;BME280;68523;51.336;-0.846;2023-04-16T01:59:01;101608.96;;;7.4;97.4
79118;BME280;68523;51.336;-0.846;2023-04-16T02:04:04;101605.31;;;7.4;98.1
79118;BME280;68523;51.336;-0.846;2023-04-16T02:09:33;101610.36;;;7.3;98.5
79118;BME280;68523;51.336;-0.846;2023-04-16T02:14:36;101613.02;;;7.3;98.8
79118;BME280;68523;51.336;-0.846;2023-04-16T02:20:07;101613.97;;;7.6;98.4
79118;BME280;68523;51.336;-0.846;2023-04-16T02:25:38;101617.34;;;7.4;99.5
79118;BME280;68523;51.336;-0.846;2023-04-16T02:31:02;101617.29;;;7.7;98.0
79118;BME280;68523;51.336;-0.846;2023-04-16T02:36:05;101623.00;;;7.7;96.8
79118;BME280;68523;51.336;-0.846;2023-04-16T02:41:34;101629.61;;;6.9;100.0
79118;BME280;68523;51.336;-0.846;2023-04-16T02:46:37;101633.19;;;7.0;100.0
79118;BME280;68523;51.336;-0.846;2023-04-16T02:52:01;101629.62;;;7.9;98.3
79118;BME280;68523;51.336;-0.846;2023-04-16T02:57:03;101631.37;;;8.1;94.6
79118;BME280;68523;51.336;-0.846;2023-04-16T03:02:06;101626.52;;;8.4;93.4
79118;BME280;68523;51.336;-0.846;2023-04-16T03:07:35;101623.65;;;8.5;92.5
79118;BME280;68523;51.336;-0.846;2023-04-16T03:12:38;101617.68;;;8.2;93.2
79118;BME280;68523;51.336;-0.846;2023-04-16T03:18:02;101613.10;;;7.4;97.8
79118;BME280;68523;51.336;-0.846;2023-04-16T03:23:04;101612.90;;;7.4;98.1
79118;BME280;68523;51.336;-0.846;2023-04-16T03:28:33;101614.57;;;7.6;98.0
79118;BME280;68523;51.336;-0.846;2023-04-16T03:33:36;101611.00;;;7.8;96.4
79118;BME280;68523;51.336;-0.846;2023-04-16T03:39:05;101609.44;;;7.2;98.8
79118;BME280;68523;51.336;-0.846;2023-04-16T03:44:34;101609.33;;;7.6;98.0
79118;BME280;68523;51.336;-0.846;2023-04-16T03:49:36;101607.68;;;7.1;99.0
79118;BME280;68523;51.336;-0.846;2023-04-16T03:55:06;101603.07;;;7.5;99.2
79118;BME280;68523;51.336;-0.846;2023-04-16T04:00:35;101600.53;;;7.4;98.8
79118;BME280;68523;51.336;-0.846;2023-04-16T04:06:06;101598.99;;;7.5;99.4
79118;BME280;68523;51.336;-0.846;2023-04-16T04:11:35;101598.35;;;7.6;97.7
79118;BME280;68523;51.336;-0.846;2023-04-16T04:16:37;101598.00;;;7.1;99.5
79118;BME280;68523;51.336;-0.846;2023-04-16T04:22:01;101599.48;;;7.3;99.0
79118;BME280;68523;51.336;-0.846;2023-04-16T04:27:04;101599.65;;;7.3;99.0
79118;BME280;68523;51.336;-0.846;2023-04-16T04:32:34;101599.86;;;7.5;99.3
79118;BME280;68523;51.336;-0.846;2023-04-16T04:37:36;101600.03;;;8.0;96.8
79118;BME280;68523;51.336;-0.846;2023-04-16T04:43:05;101598.54;;;7.3;98.0
79118;BME280;68523;51.336;-0.846;2023-04-16T04:48:34;101601.49;;;7.2;100.0
79118;BME280;68523;51.336;-0.846;2023-04-16T04:53:37;101604.73;;;8.0;98.2
79118;BME280;68523;51.336;-0.846;2023-04-16T04:59:06;101608.99;;;7.9;95.7
79118;BME280;68523;51.336;-0.846;2023-04-16T05:04:35;101610.12;;;7.4;97.8
79118;BME280;68523;51.336;-0.846;2023-04-16T05:09:37;101609.78;;;7.5;98.0
79118;BME280;68523;51.336;-0.846;2023-04-16T05:15:01;101611.35;;;7.5;97.7
79118;BME280;68523;51.336;-0.846;2023-04-16T05:20:05;101616.92;;;7.6;96.5
79118;BME280;68523;51.336;-0.846;2023-04-16T05:25:34;101622.46;;;7.3;99.1
79118;BME280;68523;51.336;-0.846;2023-04-16T05:30:37;101623.64;;;7.4;99.6
79118;BME280;68523;51.336;-0.846;2023-04-16T05:36:01;101628.16;;;7.3;100.0
79118;BME280;68523;51.336;-0.846;2023-04-16T05:41:04;101621.20;;;8.0;97.6
79118;BME280;68523;51.336;-0.846;2023-04-16T05:46:33;101621.40;;;8.3;95.4
79118;BME280;68523;51.336;-0.846;2023-04-16T05:51:36;101620.46;;;8.0;96.7
79118;BME280;68523;51.336;-0.846;2023-04-16T05:57:05;101626.61;;;7.7;98.2
79118;BME280;68523;51.336;-0.846;2023-04-16T06:02:34;101630.02;;;8.1;97.1
79118;BME280;68523;51.336;-0.846;2023-04-16T06:07:36;101633.76;;;7.7;99.3
79118;BME280;68523;51.336;-0.846;2023-04-16T06:13:05;101628.45;;;7.7;100.0
79118;BME280;68523;51.336;-0.846;2023-04-16T06:18:34;101632.71;;;7.9;100.0
79118;BME280;68523;51.336;-0.846;2023-04-16T06:23:37;101634.83;;;8.5;99.2
79118;BME280;68523;51.336;-0.846;2023-04-16T06:29:06;101640.39;;;8.7;98.0
79118;BME280;68523;51.336;-0.846;2023-04-16T06:34:36;101639.89;;;9.4;94.7
79118;BME280;68523;51.336;-0.846;2023-04-16T06:40:06;101641.98;;;8.4;97.1
79118;BME280;68523;51.336;-0.846;2023-04-16T06:45:35;101643.71;;;8.7;97.1
79118;BME280;68523;51.336;-0.846;2023-04-16T06:50:37;101645.69;;;8.8;97.9
79118;BME280;68523;51.336;-0.846;2023-04-16T06:56:01;101647.10;;;9.3;96.2
79118;BME280;68523;51.336;-0.846;2023-04-16T07:01:04;101647.96;;;9.2;97.3
79118;BME280;68523;51.336;-0.846;2023-04-16T07:06:33;101649.79;;;9.2;97.6
79118;BME280;68523;51.336;-0.846;2023-04-16T07:11:35;101649.66;;;9.6;96.0
79118;BME280;68523;51.336;-0.846;2023-04-16T07:17:04;101655.14;;;9.4;96.5
79118;BME280;68523;51.336;-0.846;2023-04-16T07:22:33;101653.35;;;9.5;96.7
79118;BME280;68523;51.336;-0.846;2023-04-16T07:27:36;101653.79;;;9.2;97.4
79118;BME280;68523;51.336;-0.846;2023-04-16T07:33:05;101656.41;;;9.3;97.6
79118;BME280;68523;51.336;-0.846;2023-04-16T07:38:34;101660.60;;;9.3;96.8
79118;BME280;68523;51.336;-0.846;2023-04-16T07:43:37;101662.71;;;9.2;96.4
79118;BME280;68523;51.336;-0.846;2023-04-16T07:49:06;101666.85;;;9.6;95.0
79118;BME280;68523;51.336;-0.846;2023-04-16T07:54:35;101669.44;;;10.3;92.4
79118;BME280;68523;51.336;-0.846;2023-04-16T07:59:38;101673.32;;;10.6;91.1
79118;BME280;68523;51.336;-0.846;2023-04-16T08:05:02;101672.37;;;10.7;87.5
79118;BME280;68523;51.336;-0.846;2023-04-16T08:10:06;101673.43;;;11.1;84.6
79118;BME280;68523;51.336;-0.846;2023-04-16T08:15:35;101675.47;;;11.9;78.7
79118;BME280;68523;51.336;-0.846;2023-04-16T08:21:05;101682.58;;;11.8;78.9
79118;BME280;68523;51.336;-0.846;2023-04-16T08:26:34;101686.06;;;12.0;77.9
79118;BME280;68523;51.336;-0.846;2023-04-16T08:31:36;101690.61;;;12.4;75.5
79118;BME280;68523;51.336;-0.846;2023-04-16T08:37:05;101695.72;;;12.2;72.4
79118;BME280;68523;51.336;-0.846;2023-04-16T08:42:39;101701.45;;;12.1;73.4
79118;BME280;68523;51.336;-0.846;2023-04-16T08:47:36;101704.00;;;12.0;73.2
79118;BME280;68523;51.336;-0.846;2023-04-16T08:53:06;101705.24;;;12.0;73.5
79118;BME280;68523;51.336;-0.846;2023-04-16T08:58:33;101711.03;;;12.3;71.6
79118;BME280;68523;51.336;-0.846;2023-04-16T09:03:44;101713.42;;;12.4;70.6
79118;BME280;68523;51.336;-0.846;2023-04-16T09:08:38;101719.05;;;12.5;70.2
79118;BME280;68523;51.336;-0.846;2023-04-16T09:14:03;101724.27;;;12.6;69.1
79118;BME280;68523;51.336;-0.846;2023-04-16T09:19:06;101731.72;;;12.2;68.0
79118;BME280;68523;51.336;-0.846;2023-04-16T09:24:35;101736.25;;;11.8;68.5
79118;BME280;68523;51.336;-0.846;2023-04-16T09:29:39;101738.79;;;11.8;69.2
79118;BME280;68523;51.336;-0.846;2023-04-16T09:35:04;101743.51;;;11.6;70.4
79118;BME280;68523;51.336;-0.846;2023-04-16T09:40:33;101745.72;;;11.8;70.4
79118;BME280;68523;51.336;-0.846;2023-04-16T09:45:47;101749.22;;;11.9;69.9
79118;BME280;68523;51.336;-0.846;2023-04-16T09:51:07;101749.73;;;11.9;70.9
79118;BME280;68523;51.336;-0.846;2023-04-16T09:56:40;101748.50;;;12.0;68.7
79118;BME280;68523;51.336;-0.846;2023-04-16T10:01:37;101750.73;;;12.1;69.6
79118;BME280;68523;51.336;-0.846;2023-04-16T10:07:02;101756.22;;;12.2;69.1
79118;BME280;68523;51.336;-0.846;2023-04-16T10:12:06;101754.85;;;12.4;68.3
79118;BME280;68523;51.336;-0.846;2023-04-16T10:17:36;101750.78;;;12.6;68.7
79118;BME280;68523;51.336;-0.846;2023-04-16T10:23:06;101754.54;;;12.8;67.1
79118;BME280;68523;51.336;-0.846;2023-04-16T10:28:36;101754.92;;;12.5;66.5
79118;BME280;68523;51.336;-0.846;2023-04-16T10:34:06;101750.76;;;12.9;66.8
79118;BME280;68523;51.336;-0.846;2023-04-16T10:39:37;101748.41;;;13.4;65.4
79118;BME280;68523;51.336;-0.846;2023-04-16T10:45:10;101748.26;;;12.9;65.2
79118;BME280;68523;51.336;-0.846;2023-04-16T10:50:35;101748.68;;;13.3;65.1
79118;BME280;68523;51.336;-0.846;2023-04-16T10:55:38;101739.80;;;14.5;60.5
79118;BME280;68523;51.336;-0.846;2023-04-16T11:01:06;101736.67;;;13.7;62.1
79118;BME280;68523;51.336;-0.846;2023-04-16T11:06:15;101738.55;;;13.1;61.7
79118;BME280;68523;51.336;-0.846;2023-04-16T11:11:37;101734.47;;;14.0;61.6
79118;BME280;68523;51.336;-0.846;2023-04-16T11:16:34;101741.64;;;13.5;63.9
79118;BME280;68523;51.336;-0.846;2023-04-16T11:21:36;101740.61;;;13.4;63.0
79118;BME280;68523;51.336;-0.846;2023-04-16T11:27:05;101740.58;;;13.3;63.1
79118;BME280;68523;51.336;-0.846;2023-04-16T11:32:35;101736.62;;;13.4;62.1
79118;BME280;68523;51.336;-0.846;2023-04-16T11:38:05;101734.67;;;13.7;62.6
79118;BME280;68523;51.336;-0.846;2023-04-16T11:43:34;101733.72;;;13.3;63.1
79118;BME280;68523;51.336;-0.846;2023-04-16T11:48:49;101728.53;;;13.3;63.4
79118;BME280;68523;51.336;-0.846;2023-04-16T11:54:02;101732.34;;;13.3;64.0
79118;BME280;68523;51.336;-0.846;2023-04-16T11:59:07;101731.13;;;13.4;63.0
79118;BME280;68523;51.336;-0.846;2023-04-16T12:04:36;101733.94;;;13.5;61.7
79118;BME280;68523;51.336;-0.846;2023-04-16T12:10:06;101732.06;;;13.2;62.3
79118;BME280;68523;51.336;-0.846;2023-04-16T12:15:43;101731.82;;;13.7;61.7
79118;BME280;68523;51.336;-0.846;2023-04-16T12:21:04;101734.07;;;13.4;62.6
79118;BME280;68523;51.336;-0.846;2023-04-16T12:26:42;101737.35;;;13.5;62.8
79118;BME280;68523;51.336;-0.846;2023-04-16T12:31:37;101736.47;;;13.4;64.6
79118;BME280;68523;51.336;-0.846;2023-04-16T12:36:34;101737.40;;;12.9;66.1
79118;BME280;68523;51.336;-0.846;2023-04-16T12:41:38;101742.43;;;13.0;67.8
79118;BME280;68523;51.336;-0.846;2023-04-16T12:47:02;101748.40;;;12.9;72.0
79118;BME280;68523;51.336;-0.846;2023-04-16T12:52:05;101752.10;;;12.8;72.3
79118;BME280;68523;51.336;-0.846;2023-04-16T12:57:34;101752.27;;;12.6;71.4
79118;BME280;68523;51.336;-0.846;2023-04-16T13:02:37;101751.52;;;13.0;70.7
79118;BME280;68523;51.336;-0.846;2023-04-16T13:08:06;101747.40;;;12.7;70.8
79118;BME280;68523;51.336;-0.846;2023-04-16T13:13:35;101749.41;;;12.8;70.4
79118;BME280;68523;51.336;-0.846;2023-04-16T13:18:38;101745.74;;;13.4;69.9
79118;BME280;68523;51.336;-0.846;2023-04-16T13:24:02;101749.37;;;13.3;69.3
79118;BME280;68523;51.336;-0.846;2023-04-16T13:29:04;101743.14;;;13.1;70.0
79118;BME280;68523;51.336;-0.846;2023-04-16T13:34:33;101741.51;;;13.0;70.4
79118;BME280;68523;51.336;-0.846;2023-04-16T13:39:36;101742.27;;;13.1;70.0
79118;BME280;68523;51.336;-0.846;2023-04-16T13:45:05;101736.85;;;13.2;69.0
79118;BME280;68523;51.336;-0.846;2023-04-16T13:50:35;101737.52;;;13.4;68.8
79118;BME280;68523;51.336;-0.846;2023-04-16T13:55:38;101737.04;;;13.3;68.2
79118;BME280;68523;51.336;-0.846;2023-04-16T14:01:01;101736.39;;;13.4;67.1
79118;BME280;68523;51.336;-0.846;2023-04-16T14:06:04;101732.25;;;13.6;67.4
79118;BME280;68523;51.336;-0.846;2023-04-16T14:11:33;101728.40;;;12.8;68.9
79118;BME280;68523;51.336;-0.846;2023-04-16T14:16:36;101729.96;;;13.2;69.0
79118;BME280;68523;51.336;-0.846;2023-04-16T14:22:05;101722.79;;;13.6;67.6
79118;BME280;68523;51.336;-0.846;2023-04-16T14:27:34;101723.51;;;13.5;68.9
79118;BME280;68523;51.336;-0.846;2023-04-16T14:32:37;101717.79;;;13.9;68.6
79118;BME280;68523;51.336;-0.846;2023-04-16T14:38:01;101713.17;;;14.2;64.9
79118;BME280;68523;51.336;-0.846;2023-04-16T14:43:04;101713.64;;;13.5;68.2
79118;BME280;68523;51.336;-0.846;2023-04-16T14:48:33;101707.45;;;14.1;69.7
79118;BME280;68523;51.336;-0.846;2023-04-16T14:53:36;101705.96;;;13.5;69.6
79118;BME280;68523;51.336;-0.846;2023-04-16T14:59:05;101703.40;;;13.8;68.9
79118;BME280;68523;51.336;-0.846;2023-04-16T15:04:34;101701.16;;;13.8;70.1
79118;BME280;68523;51.336;-0.846;2023-04-16T15:09:37;101700.68;;;13.7;68.8
79118;BME280;68523;51.336;-0.846;2023-04-16T15:15:08;101702.57;;;12.9;70.1
79118;BME280;68523;51.336;-0.846;2023-04-16T15:20:38;101692.61;;;13.4;70.6
79118;BME280;68523;51.336;-0.846;2023-04-16T15:26:01;101687.63;;;13.5;71.4
79118;BME280;68523;51.336;-0.846;2023-04-16T15:31:04;101685.44;;;13.5;70.7
79118;BME280;68523;51.336;-0.846;2023-04-16T15:36:33;101680.82;;;13.1;71.1
79118;BME280;68523;51.336;-0.846;2023-04-16T15:41:36;101683.64;;;13.2;71.8
79118;BME280;68523;51.336;-0.846;2023-04-16T15:47:05;101675.65;;;13.1;71.3
79118;BME280;68523;51.336;-0.846;2023-04-16T15:52:34;101673.83;;;13.0;71.7
79118;BME280;68523;51.336;-0.846;2023-04-16T15:57:37;101672.33;;;12.9;71.4
79118;BME280;68523;51.336;-0.846;2023-04-16T16:03:06;101676.94;;;13.0;72.1
79118;BME280;68523;51.336;-0.846;2023-04-16T16:08:35;101682.50;;;12.9;72.0
79118;BME280;68523;51.336;-0.846;2023-04-16T16:14:04;101678.88;;;13.2;71.0
79118;BME280;68523;51.336;-0.846;2023-04-16T16:19:33;101677.58;;;12.8;74.5
79118;BME280;68523;51.336;-0.846;2023-04-16T16:24:36;101679.99;;;12.7;75.8
79118;BME280;68523;51.336;-0.846;2023-04-16T16:30:07;101676.36;;;12.8;75.8
79118;BME280;68523;51.336;-0.846;2023-04-16T16:35:36;101673.55;;;12.3;76.7
79118;BME280;68523;51.336;-0.846;2023-04-16T16:41:05;101675.67;;;12.3;77.2
79118;BME280;68523;51.336;-0.846;2023-04-16T16:46:34;101680.87;;;13.0;76.3
79118;BME280;68523;51.336;-0.846;2023-04-16T16:51:37;101681.92;;;12.9;76.2
79118;BME280;68523;51.336;-0.846;2023-04-16T16:57:06;101680.65;;;12.8;76.0
79118;BME280;68523;51.336;-0.846;2023-04-16T17:02:36;101679.89;;;12.8;76.5
79118;BME280;68523;51.336;-0.846;2023-04-16T17:08:04;101675.63;;;12.6;75.9
79118;BME280;68523;51.336;-0.846;2023-04-16T17:13:34;101668.76;;;12.5;77.6
79118;BME280;68523;51.336;-0.846;2023-04-16T17:18:36;101665.54;;;12.6;77.5
79118;BME280;68523;51.336;-0.846;2023-04-16T17:24:05;101663.38;;;12.3;78.2
79118;BME280;68523;51.336;-0.846;2023-04-16T17:29:35;101661.85;;;12.3;78.2
79118;BME280;68523;51.336;-0.846;2023-04-16T17:34:37;101660.70;;;12.9;76.1
79118;BME280;68523;51.336;-0.846;2023-04-16T17:40:01;101661.91;;;12.8;76.2
79118;BME280;68523;51.336;-0.846;2023-04-16T17:45:04;101659.78;;;12.3;78.4
79118;BME280;68523;51.336;-0.846;2023-04-16T17:50:34;101667.90;;;12.1;79.8
79118;BME280;68523;51.336;-0.846;2023-04-16T17:55:36;101667.76;;;12.1;80.7
79118;BME280;68523;51.336;-0.846;2023-04-16T18:01:06;101672.01;;;11.9;80.9
79118;BME280;68523;51.336;-0.846;2023-04-16T18:06:35;101674.30;;;11.8;82.3
79118;BME280;68523;51.336;-0.846;2023-04-16T18:11:38;101674.43;;;12.0;82.7
79118;BME280;68523;51.336;-0.846;2023-04-16T18:17:02;101681.69;;;11.9;83.7
79118;BME280;68523;51.336;-0.846;2023-04-16T18:22:04;101689.36;;;11.6;83.9
79118;BME280;68523;51.336;-0.846;2023-04-16T18:27:35;101696.46;;;11.6;84.4
79118;BME280;68523;51.336;-0.846;2023-04-16T18:32:37;101701.51;;;11.8;84.5
79118;BME280;68523;51.336;-0.846;2023-04-16T18:38:01;101701.76;;;11.8;84.1
79118;BME280;68523;51.336;-0.846;2023-04-16T18:43:04;101700.99;;;11.6;84.3
79118;BME280;68523;51.336;-0.846;2023-04-16T18:48:33;101701.32;;;11.6;84.6
79118;BME280;68523;51.336;-0.846;2023-04-16T18:53:36;101702.13;;;11.5;85.5
79118;BME280;68523;51.336;-0.846;2023-04-16T18:59:05;101701.40;;;11.7;85.1
79118;BME280;68523;51.336;-0.846;2023-04-16T19:04:34;101705.00;;;11.7;84.7
79118;BME280;68523;51.336;-0.846;2023-04-16T19:09:37;101700.27;;;11.7;85.1
79118;BME280;68523;51.336;-0.846;2023-04-16T19:15:06;101700.56;;;11.7;84.5
79118;BME280;68523;51.336;-0.846;2023-04-16T19:20:36;101699.12;;;12.2;83.1
79118;BME280;68523;51.336;-0.846;2023-04-16T19:26:06;101699.41;;;12.2;82.6
79118;BME280;68523;51.336;-0.846;2023-04-16T19:31:35;101699.36;;;11.8;84.2
79118;BME280;68523;51.336;-0.846;2023-04-16T19:37:05;101703.61;;;11.5;85.6
79118;BME280;68523;51.336;-0.846;2023-04-16T19:42:34;101706.62;;;11.6;85.4
79118;BME280;68523;51.336;-0.846;2023-04-16T19:47:36;101707.15;;;11.9;83.7
79118;BME280;68523;51.336;-0.846;2023-04-16T19:53:06;101701.89;;;11.7;84.1
79118;BME280;68523;51.336;-0.846;2023-04-16T19:58:35;101705.82;;;12.3;83.2
79118;BME280;68523;51.336;-0.846;2023-04-16T20:03:38;101714.46;;;11.7;85.5
79118;BME280;68523;51.336;-0.846;2023-04-16T20:09:02;101713.49;;;10.9;88.9
79118;BME280;68523;51.336;-0.846;2023-04-16T20:14:04;101717.91;;;10.8;89.7
79118;BME280;68523;51.336;-0.846;2023-04-16T20:19:34;101719.19;;;10.8;89.0
79118;BME280;68523;51.336;-0.846;2023-04-16T20:24:37;101721.82;;;10.1;90.9
79118;BME280;68523;51.336;-0.846;2023-04-16T20:30:07;101725.93;;;10.4;90.7
79118;BME280;68523;51.336;-0.846;2023-04-16T20:35:36;101727.34;;;10.6;89.6
79118;BME280;68523;51.336;-0.846;2023-04-16T20:41:05;101727.53;;;10.9;88.6
79118;BME280;68523;51.336;-0.846;2023-04-16T20:46:34;101726.58;;;10.4;89.2
79118;BME280;68523;51.336;-0.846;2023-04-16T20:51:37;101725.67;;;10.5;89.8
79118;BME280;68523;51.336;-0.846;2023-04-16T20:57:06;101724.04;;;10.3;90.5
79118;BME280;68523;51.336;-0.846;2023-04-16T21:02:35;101721.85;;;9.8;93.5
79118;BME280;68523;51.336;-0.846;2023-04-16T21:08:05;101715.68;;;10.0;93.4
79118;BME280;68523;51.336;-0.846;2023-04-16T21:13:34;101714.25;;;9.9;93.6
79118;BME280;68523;51.336;-0.846;2023-04-16T21:18:36;101711.35;;;9.7;95.0
79118;BME280;68523;51.336;-0.846;2023-04-16T21:24:06;101708.48;;;10.5;93.0
79118;BME280;68523;51.336;-0.846;2023-04-16T21:29:35;101708.08;;;10.7;90.4
79118;BME280;68523;51.336;-0.846;2023-04-16T21:35:05;101705.83;;;10.0;94.6
79118;BME280;68523;51.336;-0.846;2023-04-16T21:40:34;101707.66;;;10.2;93.7
79118;BME280;68523;51.336;-0.846;2023-04-16T21:45:36;101710.80;;;10.1;95.0
79118;BME280;68523;51.336;-0.846;2023-04-16T21:51:05;101718.41;;;11.3;90.0
79118;BME280;68523;51.336;-0.846;2023-04-16T21:56:34;101714.97;;;11.6;87.9
79118;BME280;68523;51.336;-0.846;2023-04-16T22:01:37;101711.61;;;11.5;87.3
79118;BME280;68523;51.336;-0.846;2023-04-16T22:07:07;101711.68;;;11.3;88.8
79118;BME280;68523;51.336;-0.846;2023-04-16T22:12:36;101711.27;;;11.1;89.3
79118;BME280;68523;51.336;-0.846;2023-04-16T22:18:05;101710.55;;;10.5;92.5
79118;BME280;68523;51.336;-0.846;2023-04-16T22:23:34;101713.49;;;10.4;92.9
79118;BME280;68523;51.336;-0.846;2023-04-16T22:28:37;101716.88;;;11.0;89.8
79118;BME280;68523;51.336;-0.846;2023-04-16T22:34:06;101716.79;;;11.3;87.4
79118;BME280;68523;51.336;-0.846;2023-04-16T22:39:35;101713.18;;;11.2;87.6
79118;BME280;68523;51.336;-0.846;2023-04-16T22:44:37;101707.12;;;11.1;88.5
79118;BME280;68523;51.336;-0.846;2023-04-16T22:50:01;101702.88;;;11.0;88.5
79118;BME280;68523;51.336;-0.846;2023-04-16T22:55:09;101701.33;;;10.5;91.1
79118;BME280;68523;51.336;-0.846;2023-04-16T23:00:33;101697.21;;;10.5;91.5
79118;BME280;68523;51.336;-0.846;2023-04-16T23:05:35;101696.98;;;10.5;91.4
79118;BME280;68523;51.336;-0.846;2023-04-16T23:11:05;101702.05;;;10.6;91.0
79118;BME280;68523;51.336;-0.846;2023-04-16T23:16:34;101706.52;;;10.9;89.8
79118;BME280;68523;51.336;-0.846;2023-04-16T23:21:36;101703.45;;;10.9;89.5
79118;BME280;68523;51.336;-0.846;2023-04-16T23:27:05;101696.72;;;10.9;89.2
79118;BME280;68523;51.336;-0.846;2023-04-16T23:32:34;101699.61;;;10.9;89.4
79118;BME280;68523;51.336;-0.846;2023-04-16T23:37:37;101694.28;;;10.2;92.0
79118;BME280;68523;51.336;-0.846;2023-04-16T23:43:06;101690.90;;;10.4;90.6
79118;BME280;68523;51.336;-0.846;2023-04-16T23:48:35;101688.82;;;10.4;90.5
79118;BME280;68523;51.336;-0.846;2023-04-16T23:54:05;101691.46;;;10.7;89.4
79118;BME280;68523;51.336;-0.846;2023-04-16T23:59:34;101699.77;;;10.0;91.1
